Time;durP1;ratioP1;P1;durP2;ratioP2;P2;SDS_P1;SDS_P2;PMS_P1;PMS_P2;Temp;Humidity;BMP_temperature;BMP_pressure;BME280_temperature;BME280_humidity;BME280_pressure;Samples;Min_cycle;Max_cycle;Signal;HPM_P1;HPM_P2
2023/09/23 00:01:51;;;;;;;11.45;9.80;;;;;;;11.21;100.00;100467.28;5010245;28;20029;-75
2023/09/23 00:04:18;;;;;;;12.98;10.40;;;;;;;11.16;100.00;100467.09;5008240;28;20061;-74
2023/09/23 00:06:44;;;;;;;11.77;10.02;;;;;;;11.12;100.00;100473.97;5006170;28;20026;-74
2023/09/23 00:09:10;;;;;;;10.85;9.75;;;;;;;11.09;100.00;100474.38;5008143;28;20886;-75
2023/09/23 00:11:37;;;;;;;12.13;10.25;;;;;;;11.02;100.00;100480.59;5003700;28;20040;-75
2023/09/23 00:14:05;;;;;;;11.75;10.45;;;;;;;11.09;100.00;100475.19;5005472;28;20039;-74
2023/09/23 00:16:31;;;;;;;12.45;10.60;;;;;;;11.06;100.00;100475.59;5004032;28;20038;-75
2023/09/23 00:18:56;;;;;;;12.85;10.35;;;;;;;11.05;100.00;100480.19;4999507;28;20034;-74
2023/09/23 00:21:23;;;;;;;11.85;10.00;;;;;;;11.08;100.00;100484.31;5012826;28;20057;-73
2023/09/23 00:23:48;;;;;;;12.27;10.70;;;;;;;11.04;100.00;100488.44;5015444;28;20038;-74
2023/09/23 00:26:17;;;;;;;14.27;10.70;;;;;;;10.97;100.00;100491.16;5010808;28;20470;-74
2023/09/23 00:28:45;;;;;;;11.40;10.20;;;;;;;11.01;100.00;100491.59;4997817;28;20025;-74
2023/09/23 00:31:14;;;;;;;11.40;10.20;;;;;;;11.02;100.00;100491.38;5011519;28;20030;-75
2023/09/23 00:33:39;;;;;;;11.00;9.70;;;;;;;11.00;100.00;100496.13;5009213;28;20045;-74
2023/09/23 00:36:07;;;;;;;11.25;9.63;;;;;;;11.02;100.00;100501.31;5004293;28;20030;-75
2023/09/23 00:38:32;;;;;;;10.32;9.23;;;;;;;11.11;100.00;100504.63;5009324;28;20050;-75
2023/09/23 00:41:01;;;;;;;10.05;8.75;;;;;;;11.02;100.00;100496.75;5011314;28;20038;-74
2023/09/23 00:43:26;;;;;;;10.40;8.60;;;;;;;11.01;100.00;100508.56;5002230;28;20026;-74
2023/09/23 00:45:54;;;;;;;10.60;7.97;;;;;;;11.04;100.00;100516.22;5010863;28;20034;-74
2023/09/23 00:48:20;;;;;;;8.93;8.00;;;;;;;10.98;100.00;100505.47;5009056;28;20495;-74
2023/09/23 00:50:46;;;;;;;8.65;7.75;;;;;;;10.94;100.00;100510.44;5009548;28;20500;-74
2023/09/23 00:53:13;;;;;;;9.38;7.63;;;;;;;10.98;100.00;100514.34;5024095;28;20057;-75
2023/09/23 00:55:42;;;;;;;8.82;7.13;;;;;;;10.84;100.00;100510.84;5021018;28;20046;-74
2023/09/23 00:58:31;;;;;;;8.23;6.95;;;;;;;10.77;100.00;100518.91;5012106;28;20532;-74
2023/09/23 01:00:57;;;;;;;7.10;6.40;;;;;;;10.75;100.00;100518.31;5017128;28;20083;-74
2023/09/23 01:03:23;;;;;;;7.93;6.72;;;;;;;10.82;100.00;100525.53;5015893;28;20062;-74
2023/09/23 01:06:05;;;;;;;6.80;6.05;;;;;;;10.81;100.00;100527.44;5002662;28;20108;-74
2023/09/23 01:08:30;;;;;;;6.55;5.70;;;;;;;10.87;100.00;100541.91;5004822;28;20038;-74
2023/09/23 01:10:56;;;;;;;6.25;4.95;;;;;;;10.84;100.00;100539.63;5010054;28;20044;-76
2023/09/23 01:13:24;;;;;;;6.00;5.10;;;;;;;10.81;100.00;100540.88;5002834;28;20088;-73
2023/09/23 01:15:51;;;;;;;5.15;4.60;;;;;;;10.84;100.00;100550.41;5009079;28;20033;-76
2023/09/23 01:18:17;;;;;;;4.07;3.50;;;;;;;10.80;100.00;100546.47;5010475;28;20026;-76
2023/09/23 01:20:44;;;;;;;6.25;4.05;;;;;;;10.77;100.00;100553.91;5007370;28;20037;-75
2023/09/23 01:23:10;;;;;;;4.00;3.38;;;;;;;10.81;100.00;100548.13;5007422;28;20105;-75
2023/09/23 01:25:36;;;;;;;3.75;2.85;;;;;;;10.76;100.00;100557.66;5005287;28;20034;-75
2023/09/23 01:28:12;;;;;;;3.17;2.88;;;;;;;10.55;100.00;100566.72;5011210;28;20026;-75
2023/09/23 01:30:40;;;;;;;2.85;2.63;;;;;;;10.53;100.00;100576.03;5004357;28;20029;-76
2023/09/23 01:33:07;;;;;;;3.97;2.45;;;;;;;10.51;100.00;100572.72;5025806;28;20032;-74
2023/09/23 01:35:32;;;;;;;3.28;2.70;;;;;;;10.37;100.00;100569.97;5369736;23;20099;-74
2023/09/23 01:37:59;;;;;;;3.85;2.60;;;;;;;10.34;100.00;100575.75;5071728;28;20029;-75
2023/09/23 01:40:29;;;;;;;5.32;3.00;;;;;;;10.34;100.00;100575.75;5065810;28;20127;-76
2023/09/23 01:42:54;;;;;;;4.85;3.70;;;;;;;10.37;100.00;100586.13;5066567;28;20055;-76
2023/09/23 01:45:22;;;;;;;4.10;3.70;;;;;;;10.37;100.00;100579.91;5064744;28;20028;-76
2023/09/23 01:47:47;;;;;;;4.05;3.65;;;;;;;10.37;100.00;100587.97;5068899;28;20387;-76
2023/09/23 01:50:13;;;;;;;4.15;3.70;;;;;;;10.33;100.00;100579.47;5062293;28;20033;-76
2023/09/23 01:52:40;;;;;;;3.95;3.35;;;;;;;10.28;100.00;100590.00;5063550;28;20411;-76
2023/09/23 01:55:06;;;;;;;3.47;3.10;;;;;;;10.22;100.00;100588.97;5052316;28;20628;-76
2023/09/23 01:57:33;;;;;;;3.83;3.10;;;;;;;10.20;100.00;100595.56;5062896;28;20040;-76
2023/09/23 02:00:02;;;;;;;3.95;3.13;;;;;;;10.18;100.00;100593.06;5077186;28;20024;-76
2023/09/23 02:02:27;;;;;;;3.83;3.33;;;;;;;10.14;100.00;100598.03;5066898;28;20044;-76
2023/09/23 02:04:53;;;;;;;4.80;4.07;;;;;;;10.18;100.00;100598.44;5070322;28;20013;-76
2023/09/23 02:07:19;;;;;;;4.55;3.72;;;;;;;10.15;100.00;100602.38;5066063;28;20431;-76
2023/09/23 02:09:45;;;;;;;5.78;3.65;;;;;;;10.11;100.00;100601.13;5066927;28;20028;-77
2023/09/23 02:12:14;;;;;;;5.93;4.10;;;;;;;10.06;100.00;100616.19;5068439;28;20017;-76
2023/09/23 02:14:40;;;;;;;5.03;4.43;;;;;;;10.01;100.00;100604.16;5068768;28;20051;-76
2023/09/23 02:17:05;;;;;;;5.72;4.63;;;;;;;10.11;100.00;100614.56;5068708;28;20413;-76
2023/09/23 02:19:33;;;;;;;6.45;4.78;;;;;;;10.18;100.00;100603.84;5065569;28;20080;-76
2023/09/23 02:22:05;;;;;;;6.40;5.22;;;;;;;10.24;100.00;100612.97;5064096;28;20476;-76
2023/09/23 02:24:32;;;;;;;6.60;5.53;;;;;;;10.17;100.00;100602.16;5063362;28;20023;-76
2023/09/23 02:26:58;;;;;;;7.10;6.40;;;;;;;10.20;100.00;100600.97;5070961;28;20016;-76
2023/09/23 02:29:26;;;;;;;6.88;6.13;;;;;;;10.28;100.00;100598.06;5068745;28;20109;-76
2023/09/23 02:31:51;;;;;;;8.50;7.28;;;;;;;10.25;100.00;100603.84;5069491;28;20966;-76
2023/09/23 02:34:18;;;;;;;9.77;7.53;;;;;;;10.37;100.00;100606.81;5074626;28;20036;-75
2023/09/23 02:36:52;;;;;;;9.98;7.65;;;;;;;10.40;100.00;100611.81;5056832;28;20075;-75
2023/09/23 02:39:21;;;;;;;9.10;7.70;;;;;;;10.43;100.00;100606.84;5052191;28;20091;-75
2023/09/23 02:41:50;;;;;;;9.57;8.57;;;;;;;10.45;100.00;100615.56;5046295;28;20428;-75
2023/09/23 02:44:19;;;;;;;11.48;8.38;;;;;;;10.44;100.00;100619.28;5041927;28;20025;-77
2023/09/23 02:46:52;;;;;;;11.15;8.48;;;;;;;10.39;100.00;100620.91;5052289;28;20068;-77
2023/09/23 02:49:17;;;;;;;10.68;8.77;;;;;;;10.43;100.00;100609.53;5051927;28;20036;-76
2023/09/23 02:51:44;;;;;;;9.15;7.93;;;;;;;10.42;100.00;100618.66;5027253;28;20037;-76
2023/09/23 02:54:11;;;;;;;10.40;8.40;;;;;;;10.37;100.00;100618.41;5032974;28;20029;-76
2023/09/23 02:56:36;;;;;;;9.82;8.13;;;;;;;10.38;100.00;100614.72;5043302;28;20350;-77
2023/09/23 02:59:11;;;;;;;9.60;8.23;;;;;;;10.41;100.00;100618.84;5044380;28;20136;-77
2023/09/23 03:01:39;;;;;;;12.65;9.05;;;;;;;10.43;100.00;100623.00;5045064;28;20041;-76
2023/09/23 03:04:16;;;;;;;11.15;9.13;;;;;;;10.42;100.00;100625.91;5134880;23;20049;-76
2023/09/23 03:06:55;;;;;;;10.80;9.63;;;;;;;10.48;100.00;100621.56;5046625;28;20059;-77
2023/09/23 03:09:55;;;;;;;13.27;9.95;;;;;;;10.55;100.00;100627.81;5042190;28;20163;-77
2023/09/23 03:12:23;;;;;;;12.18;9.75;;;;;;;10.53;100.00;100627.19;5045851;28;20055;-77
2023/09/23 03:14:54;;;;;;;12.60;10.65;;;;;;;10.51;100.00;100621.97;5048007;28;20468;-77
2023/09/23 03:17:22;;;;;;;11.98;10.13;;;;;;;10.55;100.00;100630.50;5050740;28;20341;-77
2023/09/23 03:20:00;;;;;;;13.07;11.00;;;;;;;10.59;100.00;100637.16;5051421;28;20057;-77
2023/09/23 03:22:25;;;;;;;16.95;11.63;;;;;;;10.59;100.00;100629.91;5050612;28;20022;-76
2023/09/23 03:24:52;;;;;;;13.38;11.02;;;;;;;10.66;100.00;100637.16;5051413;28;20630;-77
2023/09/23 03:27:18;;;;;;;14.80;11.90;;;;;;;10.58;100.00;100635.50;5051166;28;20276;-78
2023/09/23 03:29:44;;;;;;;14.70;12.55;;;;;;;10.57;100.00;100644.59;5050950;28;20024;-77
2023/09/23 03:32:20;;;;;;;16.55;12.40;;;;;;;10.49;100.00;100647.44;5049371;28;20056;-78
2023/09/23 03:34:50;;;;;;;16.38;13.30;;;;;;;10.49;100.00;100663.59;5051168;28;20025;-77
2023/09/23 03:37:22;;;;;;;16.67;13.00;;;;;;;10.53;100.00;100665.69;5052137;28;20108;-77
2023/09/23 03:40:07;;;;;;;16.27;12.15;;;;;;;10.69;100.00;100656.44;5056316;28;20469;-77
2023/09/23 03:43:16;;;;;;;16.70;13.20;;;;;;;10.74;100.00;100659.34;5055851;28;20862;-78
2023/09/23 03:45:42;;;;;;;16.45;12.90;;;;;;;10.65;100.00;100670.50;5049681;28;20063;-78
2023/09/23 03:48:14;;;;;;;15.32;13.02;;;;;;;10.57;100.00;100674.22;5050852;28;20021;-78
2023/09/23 03:50:40;;;;;;;14.88;12.55;;;;;;;10.68;100.00;100665.53;5050948;28;20021;-77
2023/09/23 03:53:11;;;;;;;15.93;12.32;;;;;;;10.68;100.00;100662.84;5049137;28;20024;-77
2023/09/23 03:55:49;;;;;;;14.65;12.18;;;;;;;10.72;100.00;100674.03;5050425;28;20457;-77
2023/09/23 03:58:17;;;;;;;17.35;12.48;;;;;;;10.73;100.00;100681.06;5046773;28;20376;-77
2023/09/23 04:00:51;;;;;;;14.07;12.32;;;;;;;10.64;100.00;100680.44;5051357;28;20036;-77
2023/09/23 04:03:17;;;;;;;16.50;12.65;;;;;;;10.73;100.00;100681.91;5053683;28;20036;-77
2023/09/23 04:05:42;;;;;;;15.75;12.60;;;;;;;10.68;100.00;100692.47;5049065;28;20024;-77
2023/09/23 04:08:08;;;;;;;14.48;12.00;;;;;;;10.70;100.00;100701.16;5050802;28;20040;-77
2023/09/23 04:10:36;;;;;;;15.38;12.27;;;;;;;10.73;100.00;100698.06;5051090;28;20472;-77
2023/09/23 04:13:04;;;;;;;16.95;12.50;;;;;;;10.68;100.00;100687.06;5056508;28;20031;-77
2023/09/23 04:15:33;;;;;;;16.60;13.25;;;;;;;10.62;100.00;100687.88;5051827;28;20033;-76
2023/09/23 04:18:05;;;;;;;16.63;12.65;;;;;;;10.65;100.00;100695.56;5051994;28;20020;-77
2023/09/23 04:20:32;;;;;;;17.08;12.55;;;;;;;10.61;100.00;100695.13;5054465;28;20037;-77
2023/09/23 04:22:57;;;;;;;14.73;11.98;;;;;;;10.64;100.00;100691.19;5053677;28;20100;-77
2023/09/23 04:25:22;;;;;;;17.70;12.65;;;;;;;10.58;100.00;100694.72;5051667;28;20035;-77
2023/09/23 04:27:49;;;;;;;16.35;12.82;;;;;;;10.55;100.00;100695.09;5052339;28;20108;-77
2023/09/23 04:30:15;;;;;;;16.35;13.07;;;;;;;10.63;100.00;100696.78;5052542;28;20037;-77
2023/09/23 04:32:41;;;;;;;16.40;11.88;;;;;;;10.69;100.00;100706.75;5067235;28;20017;-77
2023/09/23 04:35:07;;;;;;;19.08;12.57;;;;;;;10.66;100.00;100699.91;5080785;28;20055;-77
2023/09/23 04:37:37;;;;;;;16.13;13.38;;;;;;;10.55;100.00;100712.06;5060798;28;20028;-77
2023/09/23 04:40:09;;;;;;;15.60;12.27;;;;;;;10.45;100.00;100715.13;5050278;28;20587;-77
2023/09/23 04:42:35;;;;;;;18.50;12.15;;;;;;;10.51;100.00;100704.59;5051135;28;20032;-77
2023/09/23 04:45:00;;;;;;;13.63;11.05;;;;;;;10.63;100.00;100713.75;5048648;28;20397;-77
2023/09/23 04:47:26;;;;;;;15.45;11.98;;;;;;;10.45;100.00;100717.81;5050509;28;20028;-77
2023/09/23 04:49:53;;;;;;;14.10;11.57;;;;;;;10.52;100.00;100717.03;5048800;28;20537;-77
2023/09/23 04:52:42;;;;;;;15.75;11.32;;;;;;;10.59;100.00;100725.97;5051726;28;20062;-77
2023/09/23 04:55:11;;;;;;;14.77;10.88;;;;;;;10.53;100.00;100724.09;5051715;28;20040;-77
2023/09/23 04:58:26;;;;;;;13.73;10.25;;;;;;;10.63;100.00;100729.91;5055252;28;20082;-77
2023/09/23 05:00:51;;;;;;;13.50;11.10;;;;;;;10.63;100.00;100745.25;5050493;28;20387;-76
2023/09/23 05:03:20;;;;;;;14.52;10.25;;;;;;;10.59;100.00;100734.06;5051860;28;20436;-78
2023/09/23 05:05:45;;;;;;;14.85;10.20;;;;;;;10.58;100.00;100741.28;5048923;28;20567;-76
2023/09/23 05:08:11;;;;;;;12.73;10.57;;;;;;;10.59;100.00;100740.25;5044117;28;20128;-79
2023/09/23 05:10:56;;;;;;;13.30;10.80;;;;;;;10.60;100.00;100751.84;5048609;28;20037;-78
2023/09/23 05:13:23;;;;;;;16.83;11.15;;;;;;;10.55;100.00;100754.31;5050440;28;20032;-77
2023/09/23 05:15:50;;;;;;;15.23;11.00;;;;;;;10.51;100.00;100747.66;5050247;28;20040;-77
2023/09/23 05:18:24;;;;;;;14.68;11.00;;;;;;;10.58;100.00;100759.31;5047910;28;20465;-78
2023/09/23 05:21:11;;;;;;;15.35;11.07;;;;;;;10.64;100.00;100761.19;5046807;28;20055;-78
2023/09/23 05:23:43;;;;;;;14.18;10.38;;;;;;;10.68;100.00;100772.41;5047568;28;20025;-78
2023/09/23 05:26:09;;;;;;;14.57;11.05;;;;;;;10.61;100.00;100775.03;5046356;28;20325;-77
2023/09/23 05:29:08;;;;;;;12.93;10.90;;;;;;;10.56;100.00;100775.66;5053194;28;20552;-77
2023/09/23 05:31:34;;;;;;;14.68;10.45;;;;;;;10.66;100.00;100782.53;5042489;28;20131;-77
2023/09/23 05:34:09;;;;;;;13.40;10.02;;;;;;;10.57;100.00;100788.06;5050215;28;20051;-77
2023/09/23 05:36:35;;;;;;;13.70;10.63;;;;;;;10.58;100.00;100797.81;5050682;28;20044;-77
2023/09/23 05:39:13;;;;;;;14.50;10.75;;;;;;;10.64;100.00;100793.50;5041466;28;20029;-78
2023/09/23 05:41:49;;;;;;;13.35;10.32;;;;;;;10.70;100.00;100800.78;5050446;28;20189;-77
2023/09/23 05:44:18;;;;;;;13.88;9.75;;;;;;;10.73;100.00;100811.16;5036807;28;20048;-77
2023/09/23 05:46:44;;;;;;;16.48;9.73;;;;;;;10.68;100.00;100800.16;5044475;28;20055;-77
2023/09/23 05:49:12;;;;;;;13.00;10.10;;;;;;;10.75;100.00;100806.41;5052765;28;20473;-77
2023/09/23 05:51:38;;;;;;;13.05;9.85;;;;;;;10.80;100.00;100810.34;5041312;28;20060;-78
2023/09/23 05:54:04;;;;;;;14.02;10.07;;;;;;;10.70;100.00;100821.47;5047115;28;20025;-78
2023/09/23 06:02:17;;;;;;;14.55;10.52;;;;;;;10.76;100.00;100832.31;5058487;22;20052;-78
2023/09/23 06:11:17;;;;;;;14.02;10.40;;;;;;;10.86;100.00;100848.06;5037892;23;20218;-76
2023/09/23 06:14:11;;;;;;;11.95;10.18;;;;;;;10.95;100.00;100850.63;5037826;28;20877;-79
2023/09/23 06:17:08;;;;;;;13.63;9.80;;;;;;;11.01;100.00;100853.34;4974450;28;20044;-76
2023/09/23 06:19:41;;;;;;;12.13;9.40;;;;;;;11.05;100.00;100865.38;5026163;28;20035;-76
2023/09/23 06:22:13;;;;;;;11.95;10.00;;;;;;;10.91;100.00;100872.56;5032643;28;20461;-75
2023/09/23 06:24:43;;;;;;;15.18;9.55;;;;;;;11.02;100.00;100879.25;5031838;28;20018;-76
2023/09/23 06:27:12;;;;;;;13.32;10.13;;;;;;;10.97;100.00;100880.88;5031327;28;20037;-75
2023/09/23 06:29:46;;;;;;;10.90;9.35;;;;;;;11.11;100.00;100890.69;5028700;28;20061;-76
2023/09/23 06:32:14;;;;;;;11.05;9.23;;;;;;;11.15;100.00;100897.34;5029221;28;20032;-75
2023/09/23 06:34:46;;;;;;;12.95;9.63;;;;;;;11.12;100.00;100899.63;5036181;28;20024;-74
2023/09/23 06:37:14;;;;;;;11.52;9.65;;;;;;;11.15;100.00;100916.22;5033577;28;20045;-75
2023/09/23 06:39:41;;;;;;;12.85;9.27;;;;;;;11.10;100.00;100917.84;5039518;28;20112;-75
2023/09/23 06:42:07;;;;;;;9.60;8.60;;;;;;;11.17;100.00;100929.47;5022074;28;20036;-76
2023/09/23 06:44:32;;;;;;;10.50;8.43;;;;;;;11.20;100.00;100924.53;5035705;28;20025;-75
2023/09/23 06:47:00;;;;;;;9.57;8.60;;;;;;;11.22;100.00;100924.34;5031792;28;20047;-76
2023/09/23 06:55:19;;;;;;;11.35;8.15;;;;;;;11.40;100.00;100937.25;5662632;23;20057;-77
2023/09/23 06:58:10;;;;;;;11.93;8.13;;;;;;;11.44;100.00;100932.31;5008626;28;20072;-77
2023/09/23 07:00:48;;;;;;;9.20;8.02;;;;;;;11.51;100.00;100925.06;4977808;28;20051;-77
2023/09/23 07:03:13;;;;;;;11.35;7.85;;;;;;;11.55;100.00;100926.34;5027405;28;20462;-76
2023/09/23 07:06:12;;;;;;;10.32;8.00;;;;;;;11.74;100.00;100937.41;5025600;28;20028;-77
2023/09/23 07:08:52;;;;;;;9.65;7.97;;;;;;;11.83;99.66;100937.00;5022230;28;20048;-77
2023/09/23 07:11:33;;;;;;;10.13;7.47;;;;;;;11.79;100.00;100937.63;5025404;28;20076;-77
2023/09/23 07:14:07;;;;;;;8.48;7.57;;;;;;;11.89;99.15;100948.03;5026884;28;20018;-77
2023/09/23 07:16:38;;;;;;;11.52;7.63;;;;;;;11.86;99.50;100943.84;5023423;28;20032;-77
2023/09/23 07:19:04;;;;;;;8.23;7.40;;;;;;;11.84;99.42;100951.31;5015444;28;20024;-77
2023/09/23 07:21:33;;;;;;;10.57;7.47;;;;;;;11.77;99.52;100942.38;5024408;28;20021;-77
2023/09/23 07:23:58;;;;;;;9.05;7.28;;;;;;;11.86;99.16;100957.34;5028595;28;20116;-77
2023/09/23 07:26:23;;;;;;;7.85;7.03;;;;;;;11.92;99.02;100948.44;5082239;23;20063;-76
2023/09/23 07:29:07;;;;;;;10.98;7.05;;;;;;;12.05;98.21;100963.88;5067176;28;20074;-77
2023/09/23 07:31:35;;;;;;;7.75;7.03;;;;;;;12.16;98.18;100969.69;5061953;28;20031;-77
2023/09/23 07:34:16;;;;;;;13.00;7.35;;;;;;;12.27;96.97;100972.63;5064585;28;20028;-77
2023/09/23 07:36:50;;;;;;;9.63;7.15;;;;;;;12.22;97.01;100983.19;5066451;28;20031;-77
2023/09/23 07:39:16;;;;;;;8.95;6.93;;;;;;;12.24;96.15;100981.13;5067661;28;20017;-77
2023/09/23 07:41:42;;;;;;;8.27;7.03;;;;;;;12.24;96.07;100986.53;5062556;28;20035;-77
2023/09/23 07:44:07;;;;;;;7.82;6.70;;;;;;;12.40;96.30;100995.28;5068971;28;20032;-77
2023/09/23 07:46:36;;;;;;;8.80;6.50;;;;;;;12.49;95.40;100996.75;5058471;28;20041;-77
2023/09/23 07:49:02;;;;;;;8.05;6.63;;;;;;;12.51;95.33;100999.25;5068530;28;20055;-77
2023/09/23 07:51:45;;;;;;;8.50;6.43;;;;;;;12.74;93.95;101007.78;5065036;28;20480;-76
2023/09/23 07:54:22;;;;;;;7.50;6.32;;;;;;;12.79;94.19;101009.84;5049011;28;20082;-77
2023/09/23 07:56:48;;;;;;;8.82;6.43;;;;;;;13.06;92.84;101017.94;5058163;28;20133;-77
2023/09/23 07:59:13;;;;;;;7.95;6.28;;;;;;;13.59;89.82;101013.50;5060345;28;20031;-77
2023/09/23 08:01:39;;;;;;;9.60;6.30;;;;;;;13.61;87.74;101019.50;5062205;28;20040;-76
2023/09/23 08:04:04;;;;;;;7.03;5.97;;;;;;;14.06;86.22;101027.69;5062479;28;20116;-76
2023/09/23 08:06:30;;;;;;;6.93;6.00;;;;;;;14.19;85.27;101031.34;5063317;28;20426;-76
2023/09/23 08:08:55;;;;;;;6.97;6.28;;;;;;;13.95;85.63;101031.03;5064852;28;20033;-77
2023/09/23 08:11:27;;;;;;;10.45;6.50;;;;;;;13.65;86.75;101026.16;5065375;28;20455;-77
2023/09/23 08:14:06;;;;;;;8.98;6.53;;;;;;;13.32;88.67;101037.88;5092339;27;20746;-77
2023/09/23 08:16:32;;;;;;;7.50;6.63;;;;;;;13.41;89.20;101046.63;5094319;28;20029;-76
2023/09/23 08:19:03;;;;;;;9.23;6.45;;;;;;;13.30;89.66;101048.91;5077620;28;20044;-76
2023/09/23 08:21:29;;;;;;;8.35;6.45;;;;;;;13.46;89.43;101049.53;5079940;28;20044;-77
2023/09/23 08:23:55;;;;;;;7.75;6.20;;;;;;;13.57;88.43;101056.16;5079696;28;20039;-76
2023/09/23 08:26:20;;;;;;;7.72;6.13;;;;;;;13.70;87.74;101055.28;5078967;28;20040;-77
2023/09/23 08:28:46;;;;;;;8.35;6.32;;;;;;;13.68;87.70;101052.81;5073842;28;20029;-76
2023/09/23 08:31:12;;;;;;;8.32;6.07;;;;;;;13.88;87.57;101051.91;5079060;28;20090;-76
2023/09/23 08:33:38;;;;;;;7.30;6.20;;;;;;;13.95;87.31;101060.81;5073190;28;20035;-76
2023/09/23 08:36:03;;;;;;;9.82;5.95;;;;;;;14.02;86.86;101075.16;5073214;28;20033;-76
2023/09/23 08:38:28;;;;;;;8.95;6.50;;;;;;;13.91;86.78;101068.53;5077760;28;20039;-76
2023/09/23 08:40:54;;;;;;;10.27;6.68;;;;;;;13.91;86.65;101075.84;5086469;28;20051;-76
2023/09/23 08:43:23;;;;;;;6.35;5.63;;;;;;;13.84;86.09;101064.19;5071518;28;20029;-76
2023/09/23 08:45:49;;;;;;;8.52;6.38;;;;;;;13.73;87.67;101069.22;5077991;28;20029;-77
2023/09/23 08:48:14;;;;;;;7.65;5.55;;;;;;;14.24;85.19;101067.56;5057042;28;20036;-76
2023/09/23 08:50:43;;;;;;;7.63;5.50;;;;;;;14.48;84.50;101075.97;5092091;28;20029;-77
2023/09/23 08:53:09;;;;;;;6.43;5.28;;;;;;;14.67;82.65;101078.78;5075717;28;20029;-76
2023/09/23 08:55:34;;;;;;;6.72;5.10;;;;;;;14.57;83.40;101081.97;5075865;28;20033;-77
2023/09/23 08:58:03;;;;;;;6.60;4.75;;;;;;;14.53;83.14;101087.00;5079874;28;20139;-76
2023/09/23 09:00:32;;;;;;;6.38;4.88;;;;;;;14.39;84.02;101082.69;5079113;28;20581;-76
2023/09/23 09:02:57;;;;;;;7.00;4.68;;;;;;;14.03;84.90;101082.25;5086779;28;20017;-76
2023/09/23 09:05:23;;;;;;;7.63;4.47;;;;;;;13.94;86.51;101091.66;5096355;28;20028;-76
2023/09/23 09:07:49;;;;;;;6.97;4.50;;;;;;;14.04;86.48;101092.03;5094611;28;20424;-76
2023/09/23 09:10:15;;;;;;;6.03;4.28;;;;;;;14.05;87.02;101093.69;5074531;28;20036;-76
2023/09/23 09:12:40;;;;;;;9.10;4.15;;;;;;;14.26;86.33;101105.28;5074863;28;20046;-76
2023/09/23 09:15:08;;;;;;;4.40;3.95;;;;;;;14.12;85.58;101099.06;5077457;28;20029;-76
2023/09/23 09:17:35;;;;;;;4.30;3.90;;;;;;;13.97;86.67;101115.56;5082254;28;20028;-76
2023/09/23 09:20:09;;;;;;;7.05;4.18;;;;;;;13.86;87.34;101117.06;5084041;28;20033;-74
2023/09/23 09:22:36;;;;;;;6.88;4.32;;;;;;;13.98;87.22;101125.34;5084421;28;20169;-74
2023/09/23 09:25:02;;;;;;;5.43;4.28;;;;;;;14.25;85.98;101122.56;5085180;28;20018;-74
2023/09/23 09:27:28;;;;;;;5.22;3.80;;;;;;;14.91;83.96;101117.84;5076707;28;20111;-73
2023/09/23 09:29:54;;;;;;;5.57;3.58;;;;;;;15.35;80.57;101130.66;5073388;27;20039;-73
2023/09/23 09:32:19;;;;;;;8.50;4.07;;;;;;;15.35;81.73;101119.81;5060834;28;20111;-74
2023/09/23 09:34:45;;;;;;;8.18;3.85;;;;;;;15.28;80.77;101126.09;5045155;28;20021;-72
2023/09/23 09:37:14;;;;;;;4.38;3.72;;;;;;;15.34;80.51;101129.00;5078303;28;20077;-71
2023/09/23 09:39:50;;;;;;;6.43;3.47;;;;;;;15.37;79.96;101133.94;5075319;28;20059;-72
2023/09/23 09:42:19;;;;;;;6.32;3.42;;;;;;;15.30;80.21;101126.72;5045834;28;20173;-72
2023/09/23 09:44:45;;;;;;;4.05;3.20;;;;;;;15.24;81.06;101129.50;5064117;28;20020;-74
2023/09/23 09:47:10;;;;;;;6.38;3.22;;;;;;;15.09;80.66;101127.91;5069165;28;20028;-73
2023/09/23 09:49:37;;;;;;;6.10;3.50;;;;;;;15.24;79.65;101133.00;5044116;28;22033;-73
2023/09/23 09:52:03;;;;;;;9.30;3.53;;;;;;;15.15;81.53;101137.88;5051721;28;20034;-74
2023/09/23 09:54:31;;;;;;;5.40;3.17;;;;;;;15.37;79.68;101133.94;5034994;28;20029;-74
2023/09/23 09:56:56;;;;;;;4.97;3.58;;;;;;;15.30;80.01;101140.28;5062383;28;20032;-74
2023/09/23 09:59:32;;;;;;;6.88;3.10;;;;;;;14.76;83.47;101160.69;5062153;28;20028;-73
2023/09/23 10:01:57;;;;;;;7.07;3.65;;;;;;;15.07;80.94;101148.16;5056890;28;20286;-73
2023/09/23 10:04:23;;;;;;;6.28;3.20;;;;;;;14.80;82.78;101162.72;5057205;28;20600;-74
2023/09/23 10:06:55;;;;;;;8.13;3.75;;;;;;;14.70;84.40;101152.34;5057302;28;20429;-73
2023/09/23 10:09:30;;;;;;;5.40;3.45;;;;;;;14.96;82.48;101145.13;5065371;28;20433;-73
2023/09/23 10:11:56;;;;;;;5.13;3.17;;;;;;;15.09;81.68;101155.03;5064185;28;20021;-73
2023/09/23 10:14:22;;;;;;;5.47;3.17;;;;;;;15.26;80.47;101160.75;5069918;28;20029;-72
2023/09/23 10:16:51;;;;;;;4.75;2.85;;;;;;;15.34;80.48;101156.13;5069571;28;20106;-73
2023/09/23 10:19:27;;;;;;;5.63;3.35;;;;;;;15.42;80.33;101155.81;5067532;28;20037;-73
2023/09/23 10:21:52;;;;;;;4.82;3.30;;;;;;;15.33;80.44;101157.97;5066731;28;20029;-74
2023/09/23 10:24:22;;;;;;;5.97;3.05;;;;;;;15.21;80.76;101166.00;5068940;28;20043;-74
2023/09/23 10:26:47;;;;;;;7.20;3.70;;;;;;;15.17;80.65;101167.50;5069271;28;20071;-74
2023/09/23 10:29:13;;;;;;;5.22;3.50;;;;;;;14.94;82.43;101174.31;5068044;28;20472;-73
2023/09/23 10:31:38;;;;;;;8.60;3.42;;;;;;;15.03;81.28;101174.91;5062126;28;20048;-73
2023/09/23 10:34:05;;;;;;;6.40;3.10;;;;;;;14.95;81.99;101173.28;5067065;28;20035;-73
2023/09/23 10:36:30;;;;;;;4.30;3.47;;;;;;;14.92;82.37;101181.84;5067231;28;20021;-74
2023/09/23 10:38:57;;;;;;;6.13;3.30;;;;;;;15.10;81.54;101183.81;5065291;28;20066;-75
2023/09/23 10:41:32;;;;;;;4.80;3.25;;;;;;;15.11;81.84;101184.66;5067642;28;20062;-74
2023/09/23 10:43:57;;;;;;;7.30;3.60;;;;;;;15.15;81.73;101186.69;5069712;28;20032;-74
2023/09/23 10:46:23;;;;;;;6.50;3.60;;;;;;;15.08;82.79;101185.09;5062352;28;20531;-74
2023/09/23 10:48:48;;;;;;;4.82;3.25;;;;;;;15.33;81.54;101187.81;5063572;28;20039;-73
2023/09/23 10:51:14;;;;;;;6.18;3.30;;;;;;;15.13;81.94;101199.63;5065001;28;20031;-73
2023/09/23 10:53:41;;;;;;;4.72;3.40;;;;;;;15.12;83.57;101192.56;5040568;28;20045;-73
2023/09/23 10:56:10;;;;;;;5.70;3.70;;;;;;;14.98;85.00;101204.53;5056631;28;20046;-73
2023/09/23 10:58:36;;;;;;;5.80;3.63;;;;;;;14.83;86.87;101199.41;5056079;28;20178;-73
2023/09/23 11:01:02;;;;;;;5.00;3.70;;;;;;;14.82;88.98;101206.72;5062045;28;20033;-72
2023/09/23 11:03:29;;;;;;;8.00;4.47;;;;;;;14.61;90.48;101207.84;5058355;28;20037;-73
2023/09/23 11:05:54;;;;;;;6.45;3.72;;;;;;;14.63;89.99;101211.16;5059798;28;20040;-72
2023/09/23 11:08:20;;;;;;;9.23;3.63;;;;;;;14.74;90.74;101216.97;5058111;28;20029;-72
2023/09/23 11:10:46;;;;;;;4.15;3.50;;;;;;;14.93;90.04;101217.91;5047997;28;20482;-73
2023/09/23 11:13:12;;;;;;;5.25;3.45;;;;;;;14.80;89.94;101222.34;5061616;28;20097;-73
2023/09/23 11:15:38;;;;;;;8.18;3.53;;;;;;;14.74;89.35;101223.22;5065455;28;20140;-73
2023/09/23 11:18:09;;;;;;;6.80;3.70;;;;;;;14.52;91.37;101230.78;5059911;28;20029;-73
2023/09/23 11:20:37;;;;;;;4.95;2.80;;;;;;;14.21;91.79;101225.03;5067542;28;20024;-73
2023/09/23 11:23:05;;;;;;;6.43;3.28;;;;;;;13.89;94.02;101233.00;5067259;28;20020;-73
2023/09/23 11:25:46;;;;;;;5.28;3.33;;;;;;;13.92;96.20;101242.59;5065499;28;20113;-73
2023/09/23 11:28:18;;;;;;;3.90;3.50;;;;;;;13.72;99.20;101243.44;5060605;28;20028;-73
2023/09/23 11:30:44;;;;;;;8.48;4.32;;;;;;;13.50;100.00;101242.81;5065523;28;20044;-74
2023/09/23 11:33:11;;;;;;;7.18;3.80;;;;;;;13.63;100.00;101250.06;5069088;28;20423;-73
2023/09/23 11:35:37;;;;;;;5.57;3.85;;;;;;;13.86;100.00;101248.84;5063067;28;20051;-74
2023/09/23 11:38:02;;;;;;;6.80;3.95;;;;;;;14.02;100.00;101253.81;5054968;28;20024;-73
2023/09/23 11:40:28;;;;;;;6.68;3.45;;;;;;;14.15;100.00;101261.09;5054366;28;20109;-73
2023/09/23 11:42:56;;;;;;;7.93;4.20;;;;;;;14.21;99.21;101264.81;5053742;28;20029;-75